sensor_id;sensor_type;location;lat;lon;timestamp;P1;durP1;ratioP1;P2;durP2;ratioP2
23078;SDS011;11707;50.830;4.364;2023-10-19T00:00:45;2.20;;;0.80;;
23078;SDS011;11707;50.830;4.364;2023-10-19T00:03:16;2.40;;;0.70;;
23078;SDS011;11707;50.830;4.364;2023-10-19T00:05:43;2.53;;;0.65;;
23078;SDS011;11707;50.830;4.364;2023-10-19T00:08:10;2.95;;;0.70;;
23078;SDS011;11707;50.830;4.364;2023-10-19T00:10:49;4.55;;;0.75;;
23078;SDS011;11707;50.830;4.364;2023-10-19T00:13:27;3.13;;;0.52;;
23078;SDS011;11707;50.830;4.364;2023-10-19T00:15:55;4.97;;;0.90;;
23078;SDS011;11707;50.830;4.364;2023-10-19T00:18:23;5.93;;;0.65;;
23078;SDS011;11707;50.830;4.364;2023-10-19T00:20:52;5.78;;;1.40;;
23078;SDS011;11707;50.830;4.364;2023-10-19T00:23:39;6.63;;;1.63;;
23078;SDS011;11707;50.830;4.364;2023-10-19T00:26:05;8.55;;;1.63;;
23078;SDS011;11707;50.830;4.364;2023-10-19T00:28:45;6.13;;;2.05;;
23078;SDS011;11707;50.830;4.364;2023-10-19T00:31:14;5.38;;;2.13;;
23078;SDS011;11707;50.830;4.364;2023-10-19T00:33:45;7.25;;;3.08;;
23078;SDS011;11707;50.830;4.364;2023-10-19T00:36:11;6.45;;;2.97;;
23078;SDS011;11707;50.830;4.364;2023-10-19T00:38:40;9.38;;;3.42;;
23078;SDS011;11707;50.830;4.364;2023-10-19T00:41:20;5.15;;;2.92;;
23078;SDS011;11707;50.830;4.364;2023-10-19T00:43:48;7.78;;;3.20;;
23078;SDS011;11707;50.830;4.364;2023-10-19T00:48:53;5.60;;;2.65;;
23078;SDS011;11707;50.830;4.364;2023-10-19T00:51:26;7.88;;;2.70;;
23078;SDS011;11707;50.830;4.364;2023-10-19T00:54:00;4.88;;;2.20;;
23078;SDS011;11707;50.830;4.364;2023-10-19T00:56:35;7.47;;;2.35;;
23078;SDS011;11707;50.830;4.364;2023-10-19T00:59:02;6.68;;;2.55;;
23078;SDS011;11707;50.830;4.364;2023-10-19T01:01:44;7.30;;;2.83;;
23078;SDS011;11707;50.830;4.364;2023-10-19T01:04:13;5.43;;;2.63;;
23078;SDS011;11707;50.830;4.364;2023-10-19T01:06:45;6.00;;;2.40;;
23078;SDS011;11707;50.830;4.364;2023-10-19T01:09:24;8.65;;;2.63;;
23078;SDS011;11707;50.830;4.364;2023-10-19T01:11:52;7.57;;;3.10;;
23078;SDS011;11707;50.830;4.364;2023-10-19T01:14:21;4.43;;;2.22;;
23078;SDS011;11707;50.830;4.364;2023-10-19T01:16:52;8.02;;;2.78;;
23078;SDS011;11707;50.830;4.364;2023-10-19T01:19:22;7.25;;;2.58;;
23078;SDS011;11707;50.830;4.364;2023-10-19T01:21:48;6.15;;;2.05;;
23078;SDS011;11707;50.830;4.364;2023-10-19T01:24:25;7.35;;;2.03;;
23078;SDS011;11707;50.830;4.364;2023-10-19T01:27:05;7.28;;;1.65;;
23078;SDS011;11707;50.830;4.364;2023-10-19T01:29:37;9.77;;;1.95;;
23078;SDS011;11707;50.830;4.364;2023-10-19T01:32:06;5.40;;;1.60;;
23078;SDS011;11707;50.830;4.364;2023-10-19T01:34:34;7.25;;;1.70;;
23078;SDS011;11707;50.830;4.364;2023-10-19T01:37:00;5.13;;;1.38;;
23078;SDS011;11707;50.830;4.364;2023-10-19T01:39:30;4.47;;;1.48;;
23078;SDS011;11707;50.830;4.364;2023-10-19T01:42:04;8.18;;;1.67;;
23078;SDS011;11707;50.830;4.364;2023-10-19T01:44:30;6.45;;;1.27;;
23078;SDS011;11707;50.830;4.364;2023-10-19T01:46:56;4.65;;;1.30;;
23078;SDS011;11707;50.830;4.364;2023-10-19T01:49:25;3.58;;;1.20;;
23078;SDS011;11707;50.830;4.364;2023-10-19T01:51:51;6.18;;;1.30;;
23078;SDS011;11707;50.830;4.364;2023-10-19T01:54:19;6.10;;;1.02;;
23078;SDS011;11707;50.830;4.364;2023-10-19T01:56:50;3.50;;;1.10;;
23078;SDS011;11707;50.830;4.364;2023-10-19T01:59:22;3.80;;;1.20;;
23078;SDS011;11707;50.830;4.364;2023-10-19T02:01:52;5.88;;;1.40;;
23078;SDS011;11707;50.830;4.364;2023-10-19T02:04:20;6.35;;;1.20;;
23078;SDS011;11707;50.830;4.364;2023-10-19T02:06:49;2.97;;;0.68;;
23078;SDS011;11707;50.830;4.364;2023-10-19T02:09:17;9.45;;;1.30;;
23078;SDS011;11707;50.830;4.364;2023-10-19T02:11:55;4.03;;;1.23;;
23078;SDS011;11707;50.830;4.364;2023-10-19T02:14:22;6.00;;;1.33;;
23078;SDS011;11707;50.830;4.364;2023-10-19T02:16:53;5.25;;;1.27;;
23078;SDS011;11707;50.830;4.364;2023-10-19T02:19:24;9.60;;;1.77;;
23078;SDS011;11707;50.830;4.364;2023-10-19T02:22:01;5.80;;;1.42;;
23078;SDS011;11707;50.830;4.364;2023-10-19T02:24:37;10.27;;;1.70;;
23078;SDS011;11707;50.830;4.364;2023-10-19T02:27:04;9.25;;;1.30;;
23078;SDS011;11707;50.830;4.364;2023-10-19T02:29:29;6.90;;;1.40;;
23078;SDS011;11707;50.830;4.364;2023-10-19T02:31:56;11.38;;;1.73;;
23078;SDS011;11707;50.830;4.364;2023-10-19T02:34:28;9.38;;;1.60;;
23078;SDS011;11707;50.830;4.364;2023-10-19T02:36:54;4.95;;;1.30;;
23078;SDS011;11707;50.830;4.364;2023-10-19T02:39:20;7.05;;;1.58;;
23078;SDS011;11707;50.830;4.364;2023-10-19T02:41:46;6.03;;;1.30;;
23078;SDS011;11707;50.830;4.364;2023-10-19T02:44:16;4.90;;;1.35;;
23078;SDS011;11707;50.830;4.364;2023-10-19T02:46:47;7.50;;;1.70;;
23078;SDS011;11707;50.830;4.364;2023-10-19T02:49:15;11.07;;;1.77;;
23078;SDS011;11707;50.830;4.364;2023-10-19T02:51:46;9.32;;;1.88;;
23078;SDS011;11707;50.830;4.364;2023-10-19T02:54:13;7.30;;;1.38;;
23078;SDS011;11707;50.830;4.364;2023-10-19T02:56:55;7.55;;;1.35;;
23078;SDS011;11707;50.830;4.364;2023-10-19T02:59:24;4.97;;;1.15;;
23078;SDS011;11707;50.830;4.364;2023-10-19T03:01:53;13.48;;;3.50;;
23078;SDS011;11707;50.830;4.364;2023-10-19T03:04:36;9.23;;;2.17;;
23078;SDS011;11707;50.830;4.364;2023-10-19T03:07:06;9.18;;;1.92;;
23078;SDS011;11707;50.830;4.364;2023-10-19T03:09:37;9.27;;;1.75;;
23078;SDS011;11707;50.830;4.364;2023-10-19T03:12:07;11.85;;;1.60;;
23078;SDS011;11707;50.830;4.364;2023-10-19T03:14:38;7.78;;;1.88;;
23078;SDS011;11707;50.830;4.364;2023-10-19T03:17:04;12.52;;;1.85;;
23078;SDS011;11707;50.830;4.364;2023-10-19T03:19:33;7.57;;;2.35;;
23078;SDS011;11707;50.830;4.364;2023-10-19T03:21:59;8.35;;;1.40;;
23078;SDS011;11707;50.830;4.364;2023-10-19T03:24:25;9.93;;;1.95;;
23078;SDS011;11707;50.830;4.364;2023-10-19T03:27:06;10.45;;;1.98;;
23078;SDS011;11707;50.830;4.364;2023-10-19T03:29:48;8.88;;;1.77;;
23078;SDS011;11707;50.830;4.364;2023-10-19T03:32:20;7.95;;;1.80;;
23078;SDS011;11707;50.830;4.364;2023-10-19T03:35:00;8.75;;;1.83;;
23078;SDS011;11707;50.830;4.364;2023-10-19T03:37:26;11.30;;;1.60;;
23078;SDS011;11707;50.830;4.364;2023-10-19T03:39:55;7.70;;;1.95;;
23078;SDS011;11707;50.830;4.364;2023-10-19T03:42:22;6.65;;;1.80;;
23078;SDS011;11707;50.830;4.364;2023-10-19T03:44:51;11.23;;;3.13;;
23078;SDS011;11707;50.830;4.364;2023-10-19T03:47:20;7.15;;;1.55;;
23078;SDS011;11707;50.830;4.364;2023-10-19T03:49:52;9.80;;;2.53;;
23078;SDS011;11707;50.830;4.364;2023-10-19T03:52:18;7.78;;;2.05;;
23078;SDS011;11707;50.830;4.364;2023-10-19T03:54:44;7.80;;;1.88;;
23078;SDS011;11707;50.830;4.364;2023-10-19T03:57:11;8.38;;;1.90;;
23078;SDS011;11707;50.830;4.364;2023-10-19T03:59:44;9.57;;;2.00;;
23078;SDS011;11707;50.830;4.364;2023-10-19T04:02:12;10.25;;;2.05;;
23078;SDS011;11707;50.830;4.364;2023-10-19T04:04:41;9.20;;;2.22;;
23078;SDS011;11707;50.830;4.364;2023-10-19T04:07:11;8.13;;;2.00;;
23078;SDS011;11707;50.830;4.364;2023-10-19T04:10:04;10.98;;;1.48;;
23078;SDS011;11707;50.830;4.364;2023-10-19T04:12:34;8.00;;;1.58;;
23078;SDS011;11707;50.830;4.364;2023-10-19T04:15:04;11.70;;;1.92;;
23078;SDS011;11707;50.830;4.364;2023-10-19T04:20:12;8.27;;;1.90;;
23078;SDS011;11707;50.830;4.364;2023-10-19T04:22:42;10.32;;;1.70;;
23078;SDS011;11707;50.830;4.364;2023-10-19T04:25:08;13.25;;;1.60;;
23078;SDS011;11707;50.830;4.364;2023-10-19T04:27:37;6.95;;;1.52;;
23078;SDS011;11707;50.830;4.364;2023-10-19T04:30:10;8.98;;;1.80;;
23078;SDS011;11707;50.830;4.364;2023-10-19T04:32:46;7.32;;;1.50;;
23078;SDS011;11707;50.830;4.364;2023-10-19T04:35:13;7.13;;;2.03;;
23078;SDS011;11707;50.830;4.364;2023-10-19T04:37:46;9.80;;;2.22;;
23078;SDS011;11707;50.830;4.364;2023-10-19T04:40:22;8.75;;;1.60;;
23078;SDS011;11707;50.830;4.364;2023-10-19T04:42:51;14.55;;;2.47;;
23078;SDS011;11707;50.830;4.364;2023-10-19T04:45:18;12.38;;;2.17;;
23078;SDS011;11707;50.830;4.364;2023-10-19T04:47:49;10.15;;;2.03;;
23078;SDS011;11707;50.830;4.364;2023-10-19T04:50:19;10.93;;;1.80;;
23078;SDS011;11707;50.830;4.364;2023-10-19T04:52:45;11.95;;;2.15;;
23078;SDS011;11707;50.830;4.364;2023-10-19T04:55:12;11.98;;;2.20;;
23078;SDS011;11707;50.830;4.364;2023-10-19T04:57:38;7.22;;;1.58;;
23078;SDS011;11707;50.830;4.364;2023-10-19T05:00:04;9.60;;;2.03;;
23078;SDS011;11707;50.830;4.364;2023-10-19T05:02:30;6.90;;;1.65;;
23078;SDS011;11707;50.830;4.364;2023-10-19T05:04:56;12.90;;;1.88;;
23078;SDS011;11707;50.830;4.364;2023-10-19T05:07:24;15.68;;;2.53;;
23078;SDS011;11707;50.830;4.364;2023-10-19T05:09:52;8.70;;;2.25;;
23078;SDS011;11707;50.830;4.364;2023-10-19T05:12:18;14.43;;;2.60;;
23078;SDS011;11707;50.830;4.364;2023-10-19T05:14:44;9.40;;;1.67;;
23078;SDS011;11707;50.830;4.364;2023-10-19T05:17:10;16.75;;;3.17;;
23078;SDS011;11707;50.830;4.364;2023-10-19T05:19:37;18.88;;;2.30;;
23078;SDS011;11707;50.830;4.364;2023-10-19T05:22:04;11.02;;;3.35;;
23078;SDS011;11707;50.830;4.364;2023-10-19T05:24:32;14.43;;;2.22;;
23078;SDS011;11707;50.830;4.364;2023-10-19T05:26:58;15.90;;;2.00;;
23078;SDS011;11707;50.830;4.364;2023-10-19T05:29:24;15.10;;;2.15;;
23078;SDS011;11707;50.830;4.364;2023-10-19T05:31:50;10.88;;;2.40;;
23078;SDS011;11707;50.830;4.364;2023-10-19T05:34:22;6.18;;;1.60;;
23078;SDS011;11707;50.830;4.364;2023-10-19T05:36:49;9.77;;;1.85;;
23078;SDS011;11707;50.830;4.364;2023-10-19T05:39:17;8.88;;;1.77;;
23078;SDS011;11707;50.830;4.364;2023-10-19T05:41:43;12.40;;;2.33;;
23078;SDS011;11707;50.830;4.364;2023-10-19T05:44:09;10.45;;;2.47;;
23078;SDS011;11707;50.830;4.364;2023-10-19T05:46:35;13.60;;;2.28;;
23078;SDS011;11707;50.830;4.364;2023-10-19T05:49:01;15.25;;;2.65;;
23078;SDS011;11707;50.830;4.364;2023-10-19T05:51:29;12.20;;;2.20;;
23078;SDS011;11707;50.830;4.364;2023-10-19T05:53:55;11.93;;;2.10;;
23078;SDS011;11707;50.830;4.364;2023-10-19T05:56:27;11.07;;;1.98;;
23078;SDS011;11707;50.830;4.364;2023-10-19T05:58:53;13.27;;;2.35;;
23078;SDS011;11707;50.830;4.364;2023-10-19T06:01:21;9.27;;;2.40;;
23078;SDS011;11707;50.830;4.364;2023-10-19T06:03:47;12.27;;;2.50;;
23078;SDS011;11707;50.830;4.364;2023-10-19T06:06:13;10.27;;;2.10;;
23078;SDS011;11707;50.830;4.364;2023-10-19T06:08:42;15.63;;;3.85;;
23078;SDS011;11707;50.830;4.364;2023-10-19T06:11:10;12.95;;;2.75;;
23078;SDS011;11707;50.830;4.364;2023-10-19T06:13:36;15.55;;;3.10;;
23078;SDS011;11707;50.830;4.364;2023-10-19T06:16:01;11.50;;;2.10;;
23078;SDS011;11707;50.830;4.364;2023-10-19T06:18:27;12.02;;;2.75;;
23078;SDS011;11707;50.830;4.364;2023-10-19T06:20:54;12.70;;;2.22;;
23078;SDS011;11707;50.830;4.364;2023-10-19T06:23:20;11.05;;;1.90;;
23078;SDS011;11707;50.830;4.364;2023-10-19T06:25:46;12.02;;;2.83;;
23078;SDS011;11707;50.830;4.364;2023-10-19T06:28:12;13.70;;;2.58;;
23078;SDS011;11707;50.830;4.364;2023-10-19T06:30:38;9.38;;;2.28;;
23078;SDS011;11707;50.830;4.364;2023-10-19T06:33:05;10.15;;;2.10;;
23078;SDS011;11707;50.830;4.364;2023-10-19T06:35:31;11.63;;;2.67;;
23078;SDS011;11707;50.830;4.364;2023-10-19T06:37:59;9.23;;;1.83;;
23078;SDS011;11707;50.830;4.364;2023-10-19T06:40:27;11.00;;;2.13;;
23078;SDS011;11707;50.830;4.364;2023-10-19T06:42:56;12.75;;;2.75;;
23078;SDS011;11707;50.830;4.364;2023-10-19T06:45:23;14.70;;;2.97;;
23078;SDS011;11707;50.830;4.364;2023-10-19T06:47:50;22.20;;;2.90;;
23078;SDS011;11707;50.830;4.364;2023-10-19T06:50:17;15.57;;;2.90;;
23078;SDS011;11707;50.830;4.364;2023-10-19T06:52:47;8.95;;;2.00;;
23078;SDS011;11707;50.830;4.364;2023-10-19T06:55:14;10.90;;;2.20;;
23078;SDS011;11707;50.830;4.364;2023-10-19T06:57:54;13.95;;;2.67;;
23078;SDS011;11707;50.830;4.364;2023-10-19T07:00:24;23.15;;;3.45;;
23078;SDS011;11707;50.830;4.364;2023-10-19T07:02:53;12.52;;;2.75;;
23078;SDS011;11707;50.830;4.364;2023-10-19T07:05:20;9.02;;;2.33;;
23078;SDS011;11707;50.830;4.364;2023-10-19T07:07:47;14.60;;;3.60;;
23078;SDS011;11707;50.830;4.364;2023-10-19T07:10:14;10.30;;;2.50;;
23078;SDS011;11707;50.830;4.364;2023-10-19T07:12:41;12.57;;;2.35;;
23078;SDS011;11707;50.830;4.364;2023-10-19T07:15:08;18.35;;;2.80;;
23078;SDS011;11707;50.830;4.364;2023-10-19T07:17:44;10.43;;;2.97;;
23078;SDS011;11707;50.830;4.364;2023-10-19T07:20:15;14.95;;;3.03;;
23078;SDS011;11707;50.830;4.364;2023-10-19T07:22:57;17.33;;;2.47;;
23078;SDS011;11707;50.830;4.364;2023-10-19T07:25:42;12.32;;;2.63;;
23078;SDS011;11707;50.830;4.364;2023-10-19T07:28:09;15.65;;;2.80;;
23078;SDS011;11707;50.830;4.364;2023-10-19T07:30:38;12.43;;;2.75;;
23078;SDS011;11707;50.830;4.364;2023-10-19T07:33:06;13.23;;;2.50;;
23078;SDS011;11707;50.830;4.364;2023-10-19T07:35:35;14.23;;;3.05;;
23078;SDS011;11707;50.830;4.364;2023-10-19T07:38:07;14.57;;;3.00;;
23078;SDS011;11707;50.830;4.364;2023-10-19T07:40:33;11.75;;;2.85;;
23078;SDS011;11707;50.830;4.364;2023-10-19T07:43:02;13.90;;;2.72;;
23078;SDS011;11707;50.830;4.364;2023-10-19T07:45:31;15.27;;;2.70;;
23078;SDS011;11707;50.830;4.364;2023-10-19T07:48:01;19.67;;;3.75;;
23078;SDS011;11707;50.830;4.364;2023-10-19T07:50:39;11.65;;;2.65;;
23078;SDS011;11707;50.830;4.364;2023-10-19T07:53:10;15.35;;;3.20;;
23078;SDS011;11707;50.830;4.364;2023-10-19T07:55:36;14.98;;;2.45;;
23078;SDS011;11707;50.830;4.364;2023-10-19T07:58:04;11.05;;;2.88;;
23078;SDS011;11707;50.830;4.364;2023-10-19T08:00:31;14.23;;;2.30;;
23078;SDS011;11707;50.830;4.364;2023-10-19T08:03:00;15.70;;;2.97;;
23078;SDS011;11707;50.830;4.364;2023-10-19T08:05:30;15.88;;;2.00;;
23078;SDS011;11707;50.830;4.364;2023-10-19T08:07:56;18.70;;;2.60;;
23078;SDS011;11707;50.830;4.364;2023-10-19T08:10:23;13.93;;;2.17;;
23078;SDS011;11707;50.830;4.364;2023-10-19T08:12:52;12.90;;;2.67;;
23078;SDS011;11707;50.830;4.364;2023-10-19T08:15:18;17.88;;;3.22;;
23078;SDS011;11707;50.830;4.364;2023-10-19T08:17:50;17.23;;;2.88;;
23078;SDS011;11707;50.830;4.364;2023-10-19T08:20:20;9.53;;;2.67;;
23078;SDS011;11707;50.830;4.364;2023-10-19T08:22:50;18.30;;;3.63;;
23078;SDS011;11707;50.830;4.364;2023-10-19T08:25:17;17.52;;;3.65;;
23078;SDS011;11707;50.830;4.364;2023-10-19T08:27:44;15.27;;;3.15;;
23078;SDS011;11707;50.830;4.364;2023-10-19T08:30:15;11.98;;;2.78;;
23078;SDS011;11707;50.830;4.364;2023-10-19T08:32:46;14.02;;;2.90;;
23078;SDS011;11707;50.830;4.364;2023-10-19T08:35:13;20.52;;;3.90;;
23078;SDS011;11707;50.830;4.364;2023-10-19T08:37:39;20.98;;;4.13;;
23078;SDS011;11707;50.830;4.364;2023-10-19T08:40:06;21.73;;;3.30;;
23078;SDS011;11707;50.830;4.364;2023-10-19T08:42:39;15.77;;;4.07;;
23078;SDS011;11707;50.830;4.364;2023-10-19T08:45:06;14.75;;;3.35;;
23078;SDS011;11707;50.830;4.364;2023-10-19T08:47:34;17.27;;;3.15;;
23078;SDS011;11707;50.830;4.364;2023-10-19T08:50:04;14.07;;;3.58;;
23078;SDS011;11707;50.830;4.364;2023-10-19T08:52:33;13.05;;;2.85;;
23078;SDS011;11707;50.830;4.364;2023-10-19T08:54:59;14.52;;;3.33;;
23078;SDS011;11707;50.830;4.364;2023-10-19T08:57:25;22.55;;;3.05;;
23078;SDS011;11707;50.830;4.364;2023-10-19T08:59:51;15.27;;;3.38;;
23078;SDS011;11707;50.830;4.364;2023-10-19T09:02:21;19.63;;;3.65;;
23078;SDS011;11707;50.830;4.364;2023-10-19T09:04:47;14.55;;;3.60;;
23078;SDS011;11707;50.830;4.364;2023-10-19T09:07:13;11.27;;;2.80;;
23078;SDS011;11707;50.830;4.364;2023-10-19T09:09:41;11.95;;;3.50;;
23078;SDS011;11707;50.830;4.364;2023-10-19T09:12:07;15.38;;;3.50;;
23078;SDS011;11707;50.830;4.364;2023-10-19T09:14:33;14.07;;;3.25;;
23078;SDS011;11707;50.830;4.364;2023-10-19T09:17:07;15.00;;;3.63;;
23078;SDS011;11707;50.830;4.364;2023-10-19T09:19:39;13.75;;;3.13;;
23078;SDS011;11707;50.830;4.364;2023-10-19T09:22:07;16.58;;;3.45;;
23078;SDS011;11707;50.830;4.364;2023-10-19T09:24:34;12.40;;;3.13;;
23078;SDS011;11707;50.830;4.364;2023-10-19T09:27:02;20.95;;;2.80;;
23078;SDS011;11707;50.830;4.364;2023-10-19T09:29:29;14.07;;;3.03;;
23078;SDS011;11707;50.830;4.364;2023-10-19T09:31:56;13.35;;;3.00;;
23078;SDS011;11707;50.830;4.364;2023-10-19T09:34:27;15.32;;;3.35;;
23078;SDS011;11707;50.830;4.364;2023-10-19T09:36:57;17.77;;;3.60;;
23078;SDS011;11707;50.830;4.364;2023-10-19T09:39:26;17.75;;;3.35;;
23078;SDS011;11707;50.830;4.364;2023-10-19T09:44:32;11.68;;;2.63;;
23078;SDS011;11707;50.830;4.364;2023-10-19T09:47:03;12.43;;;3.53;;
23078;SDS011;11707;50.830;4.364;2023-10-19T09:49:38;11.18;;;2.70;;
23078;SDS011;11707;50.830;4.364;2023-10-19T09:52:04;12.77;;;2.83;;
23078;SDS011;11707;50.830;4.364;2023-10-19T09:57:13;14.38;;;3.58;;
23078;SDS011;11707;50.830;4.364;2023-10-19T09:59:42;16.05;;;2.88;;
23078;SDS011;11707;50.830;4.364;2023-10-19T10:02:15;18.08;;;3.15;;
23078;SDS011;11707;50.830;4.364;2023-10-19T10:04:43;15.73;;;3.05;;
23078;SDS011;11707;50.830;4.364;2023-10-19T10:07:14;16.85;;;4.78;;
23078;SDS011;11707;50.830;4.364;2023-10-19T10:09:41;9.65;;;2.83;;
23078;SDS011;11707;50.830;4.364;2023-10-19T10:12:15;17.92;;;2.97;;
23078;SDS011;11707;50.830;4.364;2023-10-19T10:15:04;16.67;;;3.15;;
23078;SDS011;11707;50.830;4.364;2023-10-19T10:17:34;12.50;;;2.55;;
23078;SDS011;11707;50.830;4.364;2023-10-19T10:22:40;13.02;;;3.13;;
23078;SDS011;11707;50.830;4.364;2023-10-19T10:25:24;13.30;;;2.78;;
23078;SDS011;11707;50.830;4.364;2023-10-19T10:27:54;9.77;;;2.90;;
23078;SDS011;11707;50.830;4.364;2023-10-19T10:30:20;12.20;;;2.65;;
23078;SDS011;11707;50.830;4.364;2023-10-19T10:36:18;8.30;;;2.55;;
23078;SDS011;11707;50.830;4.364;2023-10-19T10:38:18;16.98;;;3.10;;
23078;SDS011;11707;50.830;4.364;2023-10-19T10:40:45;7.50;;;2.17;;
23078;SDS011;11707;50.830;4.364;2023-10-19T10:43:12;19.08;;;3.30;;
23078;SDS011;11707;50.830;4.364;2023-10-19T10:45:38;11.98;;;2.40;;
23078;SDS011;11707;50.830;4.364;2023-10-19T10:48:11;13.18;;;4.57;;
23078;SDS011;11707;50.830;4.364;2023-10-19T10:50:40;13.82;;;3.50;;
23078;SDS011;11707;50.830;4.364;2023-10-19T10:53:07;11.10;;;3.08;;
23078;SDS011;11707;50.830;4.364;2023-10-19T10:55:36;12.07;;;2.75;;
23078;SDS011;11707;50.830;4.364;2023-10-19T10:58:04;10.82;;;2.58;;
23078;SDS011;11707;50.830;4.364;2023-10-19T11:00:31;14.45;;;2.75;;
23078;SDS011;11707;50.830;4.364;2023-10-19T11:03:02;12.15;;;2.70;;
23078;SDS011;11707;50.830;4.364;2023-10-19T11:05:32;12.35;;;2.00;;
23078;SDS011;11707;50.830;4.364;2023-10-19T11:08:05;13.13;;;2.65;;
23078;SDS011;11707;50.830;4.364;2023-10-19T11:10:46;14.95;;;3.22;;
23078;SDS011;11707;50.830;4.364;2023-10-19T11:13:13;10.68;;;2.83;;
23078;SDS011;11707;50.830;4.364;2023-10-19T11:18:37;14.52;;;2.10;;
23078;SDS011;11707;50.830;4.364;2023-10-19T11:21:11;8.23;;;2.42;;
23078;SDS011;11707;50.830;4.364;2023-10-19T11:23:40;15.25;;;2.38;;
23078;SDS011;11707;50.830;4.364;2023-10-19T11:26:08;13.70;;;2.67;;
23078;SDS011;11707;50.830;4.364;2023-10-19T11:28:35;13.50;;;2.78;;
23078;SDS011;11707;50.830;4.364;2023-10-19T11:31:18;11.13;;;2.40;;
23078;SDS011;11707;50.830;4.364;2023-10-19T11:33:45;15.88;;;2.83;;
23078;SDS011;11707;50.830;4.364;2023-10-19T11:36:16;11.73;;;2.70;;
23078;SDS011;11707;50.830;4.364;2023-10-19T11:38:46;18.58;;;2.53;;
23078;SDS011;11707;50.830;4.364;2023-10-19T11:41:13;14.18;;;2.13;;
23078;SDS011;11707;50.830;4.364;2023-10-19T11:43:40;8.27;;;2.13;;
23078;SDS011;11707;50.830;4.364;2023-10-19T11:46:11;6.55;;;1.35;;
23078;SDS011;11707;50.830;4.364;2023-10-19T11:48:40;7.20;;;2.10;;
23078;SDS011;11707;50.830;4.364;2023-10-19T11:51:08;7.80;;;1.65;;
23078;SDS011;11707;50.830;4.364;2023-10-19T11:53:37;10.35;;;2.47;;
23078;SDS011;11707;50.830;4.364;2023-10-19T11:56:04;9.25;;;2.20;;
23078;SDS011;11707;50.830;4.364;2023-10-19T11:58:34;8.68;;;2.13;;
23078;SDS011;11707;50.830;4.364;2023-10-19T12:01:03;7.00;;;1.77;;
23078;SDS011;11707;50.830;4.364;2023-10-19T12:03:37;6.57;;;1.45;;
23078;SDS011;11707;50.830;4.364;2023-10-19T12:06:05;5.40;;;1.50;;
23078;SDS011;11707;50.830;4.364;2023-10-19T12:08:35;5.30;;;1.65;;
23078;SDS011;11707;50.830;4.364;2023-10-19T12:11:01;6.38;;;1.80;;
23078;SDS011;11707;50.830;4.364;2023-10-19T12:13:40;8.65;;;1.77;;
23078;SDS011;11707;50.830;4.364;2023-10-19T12:16:09;7.82;;;1.67;;
23078;SDS011;11707;50.830;4.364;2023-10-19T12:18:38;5.47;;;1.65;;
23078;SDS011;11707;50.830;4.364;2023-10-19T12:21:04;6.43;;;1.40;;
23078;SDS011;11707;50.830;4.364;2023-10-19T12:23:33;7.75;;;1.13;;
23078;SDS011;11707;50.830;4.364;2023-10-19T12:25:58;3.70;;;1.05;;
23078;SDS011;11707;50.830;4.364;2023-10-19T12:28:28;4.38;;;1.48;;
23078;SDS011;11707;50.830;4.364;2023-10-19T12:30:54;5.53;;;1.77;;
23078;SDS011;11707;50.830;4.364;2023-10-19T12:33:22;6.00;;;1.70;;
23078;SDS011;11707;50.830;4.364;2023-10-19T12:35:47;5.13;;;1.17;;
23078;SDS011;11707;50.830;4.364;2023-10-19T12:38:24;4.75;;;1.83;;
23078;SDS011;11707;50.830;4.364;2023-10-19T12:40:52;4.40;;;1.05;;
23078;SDS011;11707;50.830;4.364;2023-10-19T12:43:19;4.95;;;1.40;;
23078;SDS011;11707;50.830;4.364;2023-10-19T12:45:48;6.40;;;1.25;;
23078;SDS011;11707;50.830;4.364;2023-10-19T12:48:22;6.35;;;1.10;;
23078;SDS011;11707;50.830;4.364;2023-10-19T12:50:55;3.60;;;1.05;;
23078;SDS011;11707;50.830;4.364;2023-10-19T12:53:21;3.60;;;1.00;;
23078;SDS011;11707;50.830;4.364;2023-10-19T12:55:52;3.97;;;1.30;;
23078;SDS011;11707;50.830;4.364;2023-10-19T12:58:18;5.70;;;0.90;;
23078;SDS011;11707;50.830;4.364;2023-10-19T13:00:47;4.13;;;0.77;;
23078;SDS011;11707;50.830;4.364;2023-10-19T13:03:13;2.53;;;0.63;;
23078;SDS011;11707;50.830;4.364;2023-10-19T13:05:41;3.65;;;0.95;;
23078;SDS011;11707;50.830;4.364;2023-10-19T13:08:13;4.45;;;0.98;;
23078;SDS011;11707;50.830;4.364;2023-10-19T13:10:40;3.00;;;1.17;;
23078;SDS011;11707;50.830;4.364;2023-10-19T13:13:13;2.70;;;0.80;;
23078;SDS011;11707;50.830;4.364;2023-10-19T13:15:43;2.78;;;0.77;;
23078;SDS011;11707;50.830;4.364;2023-10-19T13:18:11;5.63;;;0.70;;
23078;SDS011;11707;50.830;4.364;2023-10-19T13:20:50;8.05;;;3.90;;
23078;SDS011;11707;50.830;4.364;2023-10-19T13:23:18;6.30;;;1.10;;
23078;SDS011;11707;50.830;4.364;2023-10-19T13:25:47;4.30;;;1.00;;
23078;SDS011;11707;50.830;4.364;2023-10-19T13:28:19;7.47;;;1.55;;
23078;SDS011;11707;50.830;4.364;2023-10-19T13:33:17;3.83;;;1.27;;
23078;SDS011;11707;50.830;4.364;2023-10-19T13:35:44;3.60;;;0.90;;
23078;SDS011;11707;50.830;4.364;2023-10-19T13:38:11;2.78;;;0.80;;
23078;SDS011;11707;50.830;4.364;2023-10-19T13:40:39;6.07;;;1.00;;
23078;SDS011;11707;50.830;4.364;2023-10-19T13:43:05;4.43;;;1.10;;
23078;SDS011;11707;50.830;4.364;2023-10-19T13:45:36;3.78;;;1.13;;
23078;SDS011;11707;50.830;4.364;2023-10-19T13:48:06;4.22;;;0.80;;
23078;SDS011;11707;50.830;4.364;2023-10-19T13:50:33;2.67;;;0.60;;
23078;SDS011;11707;50.830;4.364;2023-10-19T13:53:00;5.35;;;1.10;;
23078;SDS011;11707;50.830;4.364;2023-10-19T13:55:30;3.97;;;0.88;;
23078;SDS011;11707;50.830;4.364;2023-10-19T13:57:56;4.28;;;1.30;;
23078;SDS011;11707;50.830;4.364;2023-10-19T14:00:23;4.30;;;0.85;;
23078;SDS011;11707;50.830;4.364;2023-10-19T14:02:52;3.33;;;1.10;;
23078;SDS011;11707;50.830;4.364;2023-10-19T14:05:19;6.75;;;1.25;;
23078;SDS011;11707;50.830;4.364;2023-10-19T14:07:48;2.45;;;0.80;;
23078;SDS011;11707;50.830;4.364;2023-10-19T14:10:14;4.07;;;0.68;;
23078;SDS011;11707;50.830;4.364;2023-10-19T14:12:41;1.38;;;0.70;;
23078;SDS011;11707;50.830;4.364;2023-10-19T14:15:17;3.00;;;1.02;;
23078;SDS011;11707;50.830;4.364;2023-10-19T14:17:47;3.88;;;1.20;;
23078;SDS011;11707;50.830;4.364;2023-10-19T14:20:16;3.38;;;1.17;;
23078;SDS011;11707;50.830;4.364;2023-10-19T14:22:44;2.63;;;0.47;;
23078;SDS011;11707;50.830;4.364;2023-10-19T14:25:16;2.92;;;0.70;;
23078;SDS011;11707;50.830;4.364;2023-10-19T14:27:45;2.85;;;0.50;;
23078;SDS011;11707;50.830;4.364;2023-10-19T14:30:16;1.83;;;0.60;;
23078;SDS011;11707;50.830;4.364;2023-10-19T14:32:47;3.42;;;0.88;;
23078;SDS011;11707;50.830;4.364;2023-10-19T14:35:15;6.28;;;1.23;;
23078;SDS011;11707;50.830;4.364;2023-10-19T14:37:43;0.82;;;0.40;;
23078;SDS011;11707;50.830;4.364;2023-10-19T14:40:10;2.63;;;0.90;;
23078;SDS011;11707;50.830;4.364;2023-10-19T14:42:39;2.20;;;0.85;;
23078;SDS011;11707;50.830;4.364;2023-10-19T14:45:09;4.75;;;0.77;;
23078;SDS011;11707;50.830;4.364;2023-10-19T14:47:36;2.08;;;0.70;;
23078;SDS011;11707;50.830;4.364;2023-10-19T14:50:06;2.08;;;0.70;;
23078;SDS011;11707;50.830;4.364;2023-10-19T14:52:37;2.10;;;0.70;;
23078;SDS011;11707;50.830;4.364;2023-10-19T14:55:04;2.35;;;0.60;;
23078;SDS011;11707;50.830;4.364;2023-10-19T14:57:50;3.22;;;0.70;;
23078;SDS011;11707;50.830;4.364;2023-10-19T15:00:39;3.83;;;1.00;;
23078;SDS011;11707;50.830;4.364;2023-10-19T15:03:26;3.63;;;0.60;;
23078;SDS011;11707;50.830;4.364;2023-10-19T15:08:20;3.78;;;0.55;;
23078;SDS011;11707;50.830;4.364;2023-10-19T15:10:52;3.35;;;0.60;;
23078;SDS011;11707;50.830;4.364;2023-10-19T15:13:19;2.25;;;0.75;;
23078;SDS011;11707;50.830;4.364;2023-10-19T15:15:45;3.35;;;0.90;;
23078;SDS011;11707;50.830;4.364;2023-10-19T15:18:11;5.63;;;0.75;;